sensor_id;sensor_type;location;lat;lon;timestamp;pressure;altitude;pressure_sealevel;temperature;humidity
75425;BME280;64007;50.632;13.700;2023-02-12T00:00:32;99655.88;;;4.31;100.00
75425;BME280;64007;50.632;13.700;2023-02-12T00:03:18;99656.63;;;4.34;100.00
75425;BME280;64007;50.632;13.700;2023-02-12T00:05:43;99648.44;;;4.45;100.00
75425;BME280;64007;50.632;13.700;2023-02-12T00:08:09;99656.72;;;4.31;100.00
75425;BME280;64007;50.632;13.700;2023-02-12T00:10:40;99651.53;;;4.28;100.00
75425;BME280;64007;50.632;13.700;2023-02-12T00:13:08;99653.28;;;4.29;100.00
75425;BME280;64007;50.632;13.700;2023-02-12T00:15:40;99653.47;;;4.23;100.00
75425;BME280;64007;50.632;13.700;2023-02-12T00:18:06;99635.84;;;4.25;100.00
75425;BME280;64007;50.632;13.700;2023-02-12T00:20:32;99649.63;;;4.33;100.00
75425;BME280;64007;50.632;13.700;2023-02-12T00:22:58;99652.38;;;4.30;100.00
75425;BME280;64007;50.632;13.700;2023-02-12T00:25:24;99646.38;;;4.25;100.00
75425;BME280;64007;50.632;13.700;2023-02-12T00:27:50;99648.97;;;4.27;100.00
75425;BME280;64007;50.632;13.700;2023-02-12T00:30:15;99658.53;;;4.29;100.00
75425;BME280;64007;50.632;13.700;2023-02-12T00:32:41;99655.00;;;4.30;100.00
75425;BME280;64007;50.632;13.700;2023-02-12T00:35:09;99657.59;;;4.32;100.00
75425;BME280;64007;50.632;13.700;2023-02-12T00:37:35;99665.44;;;4.33;100.00
75425;BME280;64007;50.632;13.700;2023-02-12T00:40:00;99673.28;;;4.35;100.00
75425;BME280;64007;50.632;13.700;2023-02-12T00:42:26;99671.81;;;4.56;100.00
75425;BME280;64007;50.632;13.700;2023-02-12T00:44:52;99667.88;;;4.69;100.00
75425;BME280;64007;50.632;13.700;2023-02-12T00:47:18;99675.78;;;4.69;100.00
75425;BME280;64007;50.632;13.700;2023-02-12T00:49:43;99683.50;;;4.75;100.00
75425;BME280;64007;50.632;13.700;2023-02-12T00:52:09;99670.59;;;4.95;100.00
75425;BME280;64007;50.632;13.700;2023-02-12T00:54:35;99666.66;;;4.81;100.00
75425;BME280;64007;50.632;13.700;2023-02-12T00:57:01;99670.38;;;4.73;100.00
75425;BME280;64007;50.632;13.700;2023-02-12T00:59:26;99676.41;;;4.77;100.00
75425;BME280;64007;50.632;13.700;2023-02-12T01:01:54;99688.00;;;4.71;100.00
75425;BME280;64007;50.632;13.700;2023-02-12T01:04:20;99677.72;;;4.64;100.00
75425;BME280;64007;50.632;13.700;2023-02-12T01:06:47;99675.06;;;4.64;100.00
75425;BME280;64007;50.632;13.700;2023-02-12T01:09:13;99671.34;;;4.71;100.00
75425;BME280;64007;50.632;13.700;2023-02-12T01:11:39;99674.13;;;4.66;100.00
75425;BME280;64007;50.632;13.700;2023-02-12T01:14:04;99672.31;;;4.96;100.00
75425;BME280;64007;50.632;13.700;2023-02-12T01:16:31;99668.47;;;4.79;100.00
75425;BME280;64007;50.632;13.700;2023-02-12T01:18:58;99674.03;;;4.69;100.00
75425;BME280;64007;50.632;13.700;2023-02-12T01:21:28;99674.13;;;4.66;100.00
75425;BME280;64007;50.632;13.700;2023-02-12T01:23:56;99686.59;;;4.89;100.00
75425;BME280;64007;50.632;13.700;2023-02-12T01:26:23;99685.06;;;4.82;100.00
75425;BME280;64007;50.632;13.700;2023-02-12T01:28:51;99688.41;;;4.87;100.00
75425;BME280;64007;50.632;13.700;2023-02-12T01:31:21;99692.78;;;4.88;100.00
75425;BME280;64007;50.632;13.700;2023-02-12T01:33:48;99684.22;;;5.08;100.00
75425;BME280;64007;50.632;13.700;2023-02-12T01:36:14;99677.53;;;4.98;100.00
75425;BME280;64007;50.632;13.700;2023-02-12T01:38:40;99684.09;;;5.13;100.00
75425;BME280;64007;50.632;13.700;2023-02-12T01:41:27;99676.41;;;5.05;100.00
75425;BME280;64007;50.632;13.700;2023-02-12T01:46:35;99667.56;;;5.08;100.00
75425;BME280;64007;50.632;13.700;2023-02-12T01:49:02;99677.47;;;4.99;100.00
75425;BME280;64007;50.632;13.700;2023-02-12T01:51:29;99668.66;;;5.00;100.00
75425;BME280;64007;50.632;13.700;2023-02-12T01:53:58;99673.63;;;5.10;100.00
75425;BME280;64007;50.632;13.700;2023-02-12T01:56:26;99684.53;;;4.99;100.00
75425;BME280;64007;50.632;13.700;2023-02-12T01:58:52;99684.78;;;4.91;100.00
75425;BME280;64007;50.632;13.700;2023-02-12T02:01:22;99679.69;;;4.85;100.00
75425;BME280;64007;50.632;13.700;2023-02-12T02:03:53;99693.03;;;4.81;100.00
75425;BME280;64007;50.632;13.700;2023-02-12T02:06:31;99701.84;;;4.78;100.00
75425;BME280;64007;50.632;13.700;2023-02-12T02:08:58;99686.78;;;4.83;100.00
75425;BME280;64007;50.632;13.700;2023-02-12T02:11:25;99696.53;;;4.81;100.00
75425;BME280;64007;50.632;13.700;2023-02-12T02:14:09;99701.00;;;4.78;100.00
75425;BME280;64007;50.632;13.700;2023-02-12T02:26:08;99698.97;;;4.87;100.00
75425;BME280;64007;50.632;13.700;2023-02-12T02:31:16;99700.03;;;4.80;100.00
75425;BME280;64007;50.632;13.700;2023-02-12T02:33:58;99705.09;;;4.88;100.00
75425;BME280;64007;50.632;13.700;2023-02-12T02:36:34;99696.03;;;4.96;100.00
75425;BME280;64007;50.632;13.700;2023-02-12T02:39:06;99701.22;;;4.99;100.00
75425;BME280;64007;50.632;13.700;2023-02-12T02:41:54;99696.31;;;4.87;100.00
75425;BME280;64007;50.632;13.700;2023-02-12T02:44:27;99699.16;;;4.81;100.00
75425;BME280;64007;50.632;13.700;2023-02-12T02:46:56;99697.59;;;4.74;100.00
75425;BME280;64007;50.632;13.700;2023-02-12T02:49:32;99695.88;;;4.73;100.00
75425;BME280;64007;50.632;13.700;2023-02-12T02:52:08;99710.50;;;4.83;100.00
75425;BME280;64007;50.632;13.700;2023-02-12T02:54:39;99711.69;;;4.73;100.00
75425;BME280;64007;50.632;13.700;2023-02-12T02:57:16;99713.59;;;4.68;100.00
75425;BME280;64007;50.632;13.700;2023-02-12T02:59:47;99717.19;;;4.65;100.00
75425;BME280;64007;50.632;13.700;2023-02-12T03:02:25;99712.97;;;4.60;100.00
75425;BME280;64007;50.632;13.700;2023-02-12T03:04:57;99713.97;;;4.56;100.00
75425;BME280;64007;50.632;13.700;2023-02-12T03:07:32;99716.19;;;4.69;100.00
75425;BME280;64007;50.632;13.700;2023-02-12T03:10:11;99718.94;;;4.65;100.00
75425;BME280;64007;50.632;13.700;2023-02-12T03:13:01;99733.03;;;4.64;100.00
75425;BME280;64007;50.632;13.700;2023-02-12T03:15:41;99728.94;;;4.54;100.00
75425;BME280;64007;50.632;13.700;2023-02-12T03:18:12;99721.13;;;4.51;100.00
75425;BME280;64007;50.632;13.700;2023-02-12T03:20:44;99729.44;;;4.66;100.00
75425;BME280;64007;50.632;13.700;2023-02-12T03:23:16;99731.69;;;4.51;100.00
75425;BME280;64007;50.632;13.700;2023-02-12T03:25:57;99724.78;;;4.47;100.00
75425;BME280;64007;50.632;13.700;2023-02-12T03:28:31;99731.94;;;4.42;100.00
75425;BME280;64007;50.632;13.700;2023-02-12T03:31:02;99729.41;;;4.37;100.00
75425;BME280;64007;50.632;13.700;2023-02-12T03:39:01;99749.69;;;4.33;100.00
75425;BME280;64007;50.632;13.700;2023-02-12T03:41:41;99747.97;;;4.32;100.00
75425;BME280;64007;50.632;13.700;2023-02-12T03:44:22;99751.19;;;4.44;100.00
75425;BME280;64007;50.632;13.700;2023-02-12T03:47:00;99753.34;;;4.29;100.00
75425;BME280;64007;50.632;13.700;2023-02-12T03:52:15;99757.09;;;4.21;100.00
75425;BME280;64007;50.632;13.700;2023-02-12T03:54:41;99767.63;;;4.21;100.00
75425;BME280;64007;50.632;13.700;2023-02-12T03:57:10;99768.47;;;4.21;100.00
75425;BME280;64007;50.632;13.700;2023-02-12T03:59:38;99771.13;;;4.21;100.00
75425;BME280;64007;50.632;13.700;2023-02-12T04:02:06;99771.28;;;4.15;100.00
75425;BME280;64007;50.632;13.700;2023-02-12T04:04:31;99774.00;;;4.12;100.00
75425;BME280;64007;50.632;13.700;2023-02-12T04:06:58;99785.59;;;4.05;100.00
75425;BME280;64007;50.632;13.700;2023-02-12T04:09:25;99787.28;;;4.07;100.00
75425;BME280;64007;50.632;13.700;2023-02-12T04:25:48;99798.72;;;4.06;100.00
75425;BME280;64007;50.632;13.700;2023-02-12T04:31:38;99797.78;;;4.09;100.00
75425;BME280;64007;50.632;13.700;2023-02-12T04:34:17;99803.03;;;4.09;100.00
75425;BME280;64007;50.632;13.700;2023-02-12T04:36:49;99806.34;;;4.17;100.00
75425;BME280;64007;50.632;13.700;2023-02-12T04:39:22;99803.97;;;4.06;100.00
75425;BME280;64007;50.632;13.700;2023-02-12T04:41:50;99801.47;;;4.02;100.00
75425;BME280;64007;50.632;13.700;2023-02-12T04:44:21;99808.50;;;4.00;100.00
75425;BME280;64007;50.632;13.700;2023-02-12T04:46:48;99805.72;;;4.07;100.00
75425;BME280;64007;50.632;13.700;2023-02-12T04:49:16;99803.13;;;4.06;100.00
75425;BME280;64007;50.632;13.700;2023-02-12T04:51:42;99810.31;;;3.98;100.00
75425;BME280;64007;50.632;13.700;2023-02-12T04:54:08;99814.75;;;3.96;100.00
75425;BME280;64007;50.632;13.700;2023-02-12T04:56:33;99814.50;;;4.06;100.00
75425;BME280;64007;50.632;13.700;2023-02-12T04:58:59;99823.69;;;4.24;100.00
75425;BME280;64007;50.632;13.700;2023-02-12T05:01:25;99819.44;;;4.19;100.00
75425;BME280;64007;50.632;13.700;2023-02-12T05:03:51;99820.41;;;4.16;100.00
75425;BME280;64007;50.632;13.700;2023-02-12T05:06:17;99816.03;;;4.15;100.00
75425;BME280;64007;50.632;13.700;2023-02-12T05:08:43;99821.72;;;4.32;100.00
75425;BME280;64007;50.632;13.700;2023-02-12T05:11:09;99813.00;;;4.30;100.00
75425;BME280;64007;50.632;13.700;2023-02-12T05:13:35;99822.13;;;4.17;100.00
75425;BME280;64007;50.632;13.700;2023-02-12T05:16:06;99818.06;;;4.05;100.00
75425;BME280;64007;50.632;13.700;2023-02-12T05:18:33;99819.03;;;4.01;100.00
75425;BME280;64007;50.632;13.700;2023-02-12T05:21:01;99824.06;;;4.11;100.00
75425;BME280;64007;50.632;13.700;2023-02-12T05:23:29;99819.03;;;4.00;100.00
75425;BME280;64007;50.632;13.700;2023-02-12T05:25:57;99820.81;;;3.99;100.00
75425;BME280;64007;50.632;13.700;2023-02-12T05:28:23;99826.19;;;3.95;100.00
75425;BME280;64007;50.632;13.700;2023-02-12T05:30:49;99837.66;;;3.92;100.00
75425;BME280;64007;50.632;13.700;2023-02-12T05:33:15;99836.81;;;3.92;100.00
75425;BME280;64007;50.632;13.700;2023-02-12T05:35:41;99834.47;;;4.15;100.00
75425;BME280;64007;50.632;13.700;2023-02-12T05:38:07;99831.25;;;4.04;100.00
75425;BME280;64007;50.632;13.700;2023-02-12T05:40:32;99835.66;;;4.03;100.00
75425;BME280;64007;50.632;13.700;2023-02-12T05:42:59;99830.47;;;4.00;100.00
75425;BME280;64007;50.632;13.700;2023-02-12T05:45:24;99834.81;;;4.01;100.00
75425;BME280;64007;50.632;13.700;2023-02-12T05:47:53;99836.63;;;3.98;100.00
75425;BME280;64007;50.632;13.700;2023-02-12T05:50:18;99834.81;;;4.01;100.00
75425;BME280;64007;50.632;13.700;2023-02-12T05:52:44;99838.44;;;3.96;100.00
75425;BME280;64007;50.632;13.700;2023-02-12T05:55:10;99839.44;;;3.92;100.00
75425;BME280;64007;50.632;13.700;2023-02-12T05:57:36;99843.00;;;3.89;100.00
75425;BME280;64007;50.632;13.700;2023-02-12T06:00:04;99847.41;;;3.89;100.00
75425;BME280;64007;50.632;13.700;2023-02-12T06:02:32;99849.13;;;3.90;100.00
75425;BME280;64007;50.632;13.700;2023-02-12T06:04:58;99852.75;;;3.86;100.00
75425;BME280;64007;50.632;13.700;2023-02-12T06:07:23;99861.53;;;3.85;100.00
75425;BME280;64007;50.632;13.700;2023-02-12T06:09:49;99873.09;;;3.79;100.00
75425;BME280;64007;50.632;13.700;2023-02-12T06:12:15;99872.22;;;3.78;100.00
75425;BME280;64007;50.632;13.700;2023-02-12T06:14:41;99869.53;;;3.80;100.00
75425;BME280;64007;50.632;13.700;2023-02-12T06:17:07;99879.22;;;3.80;100.00
75425;BME280;64007;50.632;13.700;2023-02-12T06:19:32;99878.38;;;3.77;100.00
75425;BME280;64007;50.632;13.700;2023-02-12T06:21:58;99865.22;;;3.77;100.00
75425;BME280;64007;50.632;13.700;2023-02-12T06:24:24;99875.75;;;3.77;100.00
75425;BME280;64007;50.632;13.700;2023-02-12T06:26:50;99869.59;;;3.78;100.00
75425;BME280;64007;50.632;13.700;2023-02-12T06:29:17;99887.13;;;3.78;100.00
75425;BME280;64007;50.632;13.700;2023-02-12T06:31:43;99878.91;;;3.92;100.00
75425;BME280;64007;50.632;13.700;2023-02-12T06:34:10;99884.25;;;3.89;100.00
75425;BME280;64007;50.632;13.700;2023-02-12T06:36:39;99889.25;;;4.01;100.00
75425;BME280;64007;50.632;13.700;2023-02-12T06:39:06;99886.06;;;3.87;100.00
75425;BME280;64007;50.632;13.700;2023-02-12T06:41:32;99893.19;;;3.82;100.00
75425;BME280;64007;50.632;13.700;2023-02-12T06:43:58;99898.44;;;3.82;100.00
75425;BME280;64007;50.632;13.700;2023-02-12T06:46:24;99895.38;;;4.00;100.00
75425;BME280;64007;50.632;13.700;2023-02-12T06:48:57;99903.41;;;3.94;100.00
75425;BME280;64007;50.632;13.700;2023-02-12T06:51:24;99915.81;;;3.89;100.00
75425;BME280;64007;50.632;13.700;2023-02-12T06:53:53;99913.31;;;3.84;100.00
75425;BME280;64007;50.632;13.700;2023-02-12T06:56:20;99917.31;;;3.99;100.00
75425;BME280;64007;50.632;13.700;2023-02-12T06:58:50;99918.16;;;4.02;100.00
75425;BME280;64007;50.632;13.700;2023-02-12T07:01:20;99919.16;;;3.95;100.00
75425;BME280;64007;50.632;13.700;2023-02-12T07:03:48;99926.31;;;3.90;100.00
75425;BME280;64007;50.632;13.700;2023-02-12T07:06:15;99917.56;;;3.90;100.00
75425;BME280;64007;50.632;13.700;2023-02-12T07:08:41;99911.38;;;3.91;100.00
75425;BME280;64007;50.632;13.700;2023-02-12T07:11:07;99922.75;;;3.93;100.00
75425;BME280;64007;50.632;13.700;2023-02-12T07:13:33;99927.94;;;3.96;100.00
75425;BME280;64007;50.632;13.700;2023-02-12T07:16:06;99922.59;;;4.00;100.00
75425;BME280;64007;50.632;13.700;2023-02-12T07:18:33;99929.50;;;4.04;100.00
75425;BME280;64007;50.632;13.700;2023-02-12T07:20:59;99924.13;;;4.09;100.00
75425;BME280;64007;50.632;13.700;2023-02-12T07:23:25;99925.09;;;4.05;100.00
75425;BME280;64007;50.632;13.700;2023-02-12T07:26:02;99934.72;;;4.06;100.00
75425;BME280;64007;50.632;13.700;2023-02-12T07:28:29;99939.13;;;4.05;100.00
75425;BME280;64007;50.632;13.700;2023-02-12T07:31:08;99929.31;;;4.12;100.00
75425;BME280;64007;50.632;13.700;2023-02-12T07:33:35;99936.25;;;4.16;100.00
75425;BME280;64007;50.632;13.700;2023-02-12T07:36:06;99938.84;;;4.18;100.00
75425;BME280;64007;50.632;13.700;2023-02-12T07:38:32;99939.63;;;4.21;100.00
75425;BME280;64007;50.632;13.700;2023-02-12T07:41:12;99951.88;;;4.22;100.00
75425;BME280;64007;50.632;13.700;2023-02-12T07:43:39;99957.06;;;4.25;100.00
75425;BME280;64007;50.632;13.700;2023-02-12T07:46:29;99959.56;;;4.31;100.00
75425;BME280;64007;50.632;13.700;2023-02-12T07:48:57;99958.66;;;4.32;100.00
75425;BME280;64007;50.632;13.700;2023-02-12T07:51:23;99963.88;;;4.34;100.00
75425;BME280;64007;50.632;13.700;2023-02-12T07:53:50;99955.09;;;4.33;100.00
75425;BME280;64007;50.632;13.700;2023-02-12T07:56:18;99967.38;;;4.34;100.00
75425;BME280;64007;50.632;13.700;2023-02-12T07:58:45;99966.50;;;4.34;100.00
75425;BME280;64007;50.632;13.700;2023-02-12T08:01:19;99967.34;;;4.36;100.00
75425;BME280;64007;50.632;13.700;2023-02-12T08:03:45;99970.72;;;4.43;100.00
75425;BME280;64007;50.632;13.700;2023-02-12T08:06:17;99963.56;;;4.48;100.00
75425;BME280;64007;50.632;13.700;2023-02-12T08:08:47;99961.66;;;4.53;100.00
75425;BME280;64007;50.632;13.700;2023-02-12T08:11:14;99963.34;;;4.55;100.00
75425;BME280;64007;50.632;13.700;2023-02-12T08:13:41;99963.16;;;4.63;100.00
75425;BME280;64007;50.632;13.700;2023-02-12T08:16:10;99975.19;;;4.73;100.00
75425;BME280;64007;50.632;13.700;2023-02-12T08:18:36;99975.03;;;4.79;100.00
75425;BME280;64007;50.632;13.700;2023-02-12T08:21:10;99970.44;;;4.87;100.00
75425;BME280;64007;50.632;13.700;2023-02-12T08:23:36;99969.38;;;4.94;100.00
75425;BME280;64007;50.632;13.700;2023-02-12T08:26:09;99969.09;;;5.03;100.00
75425;BME280;64007;50.632;13.700;2023-02-12T08:28:35;99972.41;;;5.12;100.00
75425;BME280;64007;50.632;13.700;2023-02-12T08:31:03;99975.75;;;5.17;100.00
75425;BME280;64007;50.632;13.700;2023-02-12T08:33:29;99984.34;;;5.25;100.00
75425;BME280;64007;50.632;13.700;2023-02-12T08:36:07;99987.72;;;5.30;100.00
75425;BME280;64007;50.632;13.700;2023-02-12T08:38:34;99988.63;;;5.29;100.00
75425;BME280;64007;50.632;13.700;2023-02-12T08:41:12;99998.19;;;5.33;100.00
75425;BME280;64007;50.632;13.700;2023-02-12T08:43:39;99994.66;;;5.34;100.00
75425;BME280;64007;50.632;13.700;2023-02-12T08:46:11;99989.38;;;5.34;100.00
75425;BME280;64007;50.632;13.700;2023-02-12T08:48:37;99991.09;;;5.35;100.00
75425;BME280;64007;50.632;13.700;2023-02-12T08:53:38;100000.09;;;5.28;100.00
75425;BME280;64007;50.632;13.700;2023-02-12T08:56:05;100005.41;;;5.26;100.00
75425;BME280;64007;50.632;13.700;2023-02-12T08:58:31;100012.97;;;5.39;100.00
75425;BME280;64007;50.632;13.700;2023-02-12T09:00:57;100004.84;;;5.46;100.00
75425;BME280;64007;50.632;13.700;2023-02-12T09:03:22;100006.66;;;5.44;100.00
75425;BME280;64007;50.632;13.700;2023-02-12T09:05:49;100004.84;;;5.46;100.00
75425;BME280;64007;50.632;13.700;2023-02-12T09:08:14;100009.91;;;5.54;100.00
75425;BME280;64007;50.632;13.700;2023-02-12T09:10:42;100011.44;;;5.62;100.00
75425;BME280;64007;50.632;13.700;2023-02-12T09:13:09;100020.00;;;5.71;100.00
75425;BME280;64007;50.632;13.700;2023-02-12T09:15:44;100014.34;;;5.83;100.00
75425;BME280;64007;50.632;13.700;2023-02-12T09:18:11;100024.66;;;5.92;100.00
75425;BME280;64007;50.632;13.700;2023-02-12T09:20:39;100020.66;;;6.08;100.00
75425;BME280;64007;50.632;13.700;2023-02-12T09:23:10;100024.75;;;6.18;100.00
75425;BME280;64007;50.632;13.700;2023-02-12T09:25:41;100023.53;;;6.28;100.00
75425;BME280;64007;50.632;13.700;2023-02-12T09:28:07;100034.72;;;6.37;100.00
75425;BME280;64007;50.632;13.700;2023-02-12T09:30:35;100035.41;;;6.43;100.00
75425;BME280;64007;50.632;13.700;2023-02-12T09:33:00;100036.03;;;6.51;100.00
75425;BME280;64007;50.632;13.700;2023-02-12T09:35:26;100038.31;;;6.62;100.00
75425;BME280;64007;50.632;13.700;2023-02-12T09:37:52;100041.47;;;6.73;100.00
75425;BME280;64007;50.632;13.700;2023-02-12T09:40:21;100043.00;;;6.80;100.00
75425;BME280;64007;50.632;13.700;2023-02-12T09:51:21;100068.53;;;7.08;100.00
75425;BME280;64007;50.632;13.700;2023-02-12T09:53:59;100064.84;;;7.12;100.00
75425;BME280;64007;50.632;13.700;2023-02-12T09:56:26;100065.63;;;7.15;100.00
75425;BME280;64007;50.632;13.700;2023-02-12T09:58:57;100064.63;;;7.18;100.00
75425;BME280;64007;50.632;13.700;2023-02-12T10:01:26;100064.56;;;7.21;100.00
75425;BME280;64007;50.632;13.700;2023-02-12T10:03:52;100067.00;;;7.27;100.00
75425;BME280;64007;50.632;13.700;2023-02-12T10:06:25;100072.00;;;7.35;100.00
75425;BME280;64007;50.632;13.700;2023-02-12T10:11:55;100067.16;;;7.47;100.00
75425;BME280;64007;50.632;13.700;2023-02-12T10:28:26;100067.25;;;7.44;100.00
75425;BME280;64007;50.632;13.700;2023-02-12T10:30:58;100067.16;;;7.47;100.00
75425;BME280;64007;50.632;13.700;2023-02-12T10:33:54;100068.88;;;7.48;100.00
75425;BME280;64007;50.632;13.700;2023-02-12T10:36:47;100067.25;;;7.44;100.00
75425;BME280;64007;50.632;13.700;2023-02-12T10:41:59;100072.31;;;7.50;100.00
75425;BME280;64007;50.632;13.700;2023-02-12T10:44:27;100068.75;;;7.51;100.00
75425;BME280;64007;50.632;13.700;2023-02-12T10:46:52;100064.44;;;7.49;100.00
75425;BME280;64007;50.632;13.700;2023-02-12T10:49:19;100066.22;;;7.48;100.00
75425;BME280;64007;50.632;13.700;2023-02-12T10:54:48;100053.63;;;7.80;100.00
75425;BME280;64007;50.632;13.700;2023-02-12T10:57:18;100050.31;;;7.97;100.00
75425;BME280;64007;50.632;13.700;2023-02-12T10:59:46;100055.00;;;7.90;100.00
75425;BME280;64007;50.632;13.700;2023-02-12T11:02:26;100064.53;;;7.94;100.00
75425;BME280;64007;50.632;13.700;2023-02-12T11:04:53;100056.47;;;7.97;100.00
75425;BME280;64007;50.632;13.700;2023-02-12T11:07:20;100052.78;;;8.03;100.00
75425;BME280;64007;50.632;13.700;2023-02-12T11:09:48;100050.31;;;7.97;100.00
75425;BME280;64007;50.632;13.700;2023-02-12T11:15:16;100056.38;;;8.00;100.00
75425;BME280;64007;50.632;13.700;2023-02-12T11:17:45;100053.03;;;7.95;100.00
75425;BME280;64007;50.632;13.700;2023-02-12T11:20:28;100059.00;;;8.02;100.00
75425;BME280;64007;50.632;13.700;2023-02-12T11:23:00;100059.38;;;8.14;100.00
75425;BME280;64007;50.632;13.700;2023-02-12T11:25:35;100062.16;;;8.11;100.00
75425;BME280;64007;50.632;13.700;2023-02-12T11:30:29;100050.75;;;8.09;100.00
75425;BME280;64007;50.632;13.700;2023-02-12T11:33:14;100054.56;;;8.02;100.00
75425;BME280;64007;50.632;13.700;2023-02-12T11:35:52;100057.25;;;8.01;100.00
75425;BME280;64007;50.632;13.700;2023-02-12T11:38:25;100050.75;;;8.09;100.00
75425;BME280;64007;50.632;13.700;2023-02-12T11:40:58;100053.84;;;8.21;100.00
75425;BME280;64007;50.632;13.700;2023-02-12T11:43:25;100044.91;;;8.23;100.00
75425;BME280;64007;50.632;13.700;2023-02-12T11:45:53;100045.25;;;8.14;100.00
75425;BME280;64007;50.632;13.700;2023-02-12T11:50:52;100036.78;;;8.51;100.00
75425;BME280;64007;50.632;13.700;2023-02-12T11:53:42;100035.91;;;8.51;100.00
75425;BME280;64007;50.632;13.700;2023-02-12T11:56:10;100038.50;;;8.52;100.00
75425;BME280;64007;50.632;13.700;2023-02-12T11:58:37;100034.44;;;8.43;100.00
75425;BME280;64007;50.632;13.700;2023-02-12T12:06:34;100035.41;;;8.41;100.00
75425;BME280;64007;50.632;13.700;2023-02-12T12:11:37;100029.28;;;8.39;100.00
75425;BME280;64007;50.632;13.700;2023-02-12T12:14:16;100022.91;;;8.44;100.00
75425;BME280;64007;50.632;13.700;2023-02-12T12:19:58;100032.41;;;8.50;100.00
75425;BME280;64007;50.632;13.700;2023-02-12T12:27:49;100048.47;;;8.67;100.00
75425;BME280;64007;50.632;13.700;2023-02-12T12:33:25;100034.19;;;8.50;100.00
75425;BME280;64007;50.632;13.700;2023-02-12T12:44:33;100032.75;;;8.17;100.00
75425;BME280;64007;50.632;13.700;2023-02-12T13:04:06;100023.91;;;7.72;100.00
75425;BME280;64007;50.632;13.700;2023-02-12T13:15:20;100019.16;;;7.57;100.00
75425;BME280;64007;50.632;13.700;2023-02-12T13:18:23;100018.34;;;7.54;100.00
75425;BME280;64007;50.632;13.700;2023-02-12T13:21:30;100020.50;;;7.68;100.00
75425;BME280;64007;50.632;13.700;2023-02-12T13:24:06;100014.25;;;7.71;100.00
75425;BME280;64007;50.632;13.700;2023-02-12T13:29:12;100016.25;;;7.88;100.00
75425;BME280;64007;50.632;13.700;2023-02-12T13:31:48;100015.31;;;7.89;100.00
75425;BME280;64007;50.632;13.700;2023-02-12T13:34:16;100012.38;;;7.96;100.00
75425;BME280;64007;50.632;13.700;2023-02-12T13:36:43;100015.75;;;8.01;100.00
75425;BME280;64007;50.632;13.700;2023-02-12T13:41:39;100005.16;;;8.00;100.00
75425;BME280;64007;50.632;13.700;2023-02-12T13:44:18;100015.25;;;8.13;100.00
75425;BME280;64007;50.632;13.700;2023-02-12T13:46:51;100016.75;;;8.21;100.00
75425;BME280;64007;50.632;13.700;2023-02-12T13:52:05;100016.00;;;7.94;100.00
75425;BME280;64007;50.632;13.700;2023-02-12T13:57:15;100014.22;;;7.94;100.00
75425;BME280;64007;50.632;13.700;2023-02-12T13:59:43;100006.09;;;7.99;100.00
75425;BME280;64007;50.632;13.700;2023-02-12T14:05:14;100008.47;;;8.06;100.00
75425;BME280;64007;50.632;13.700;2023-02-12T14:07:46;100014.50;;;8.10;100.00
75425;BME280;64007;50.632;13.700;2023-02-12T14:10:35;100011.69;;;8.14;100.00
75425;BME280;64007;50.632;13.700;2023-02-12T14:13:15;100016.00;;;8.17;100.00
75425;BME280;64007;50.632;13.700;2023-02-12T14:15:44;100017.78;;;8.16;100.00
75425;BME280;64007;50.632;13.700;2023-02-12T14:18:33;100020.56;;;8.13;100.00
75425;BME280;64007;50.632;13.700;2023-02-12T14:23:42;100010.19;;;8.07;100.00
75425;BME280;64007;50.632;13.700;2023-02-12T14:26:12;100013.78;;;8.06;100.00
75425;BME280;64007;50.632;13.700;2023-02-12T14:28:48;100014.81;;;8.02;100.00
75425;BME280;64007;50.632;13.700;2023-02-12T14:33:44;100021.13;;;7.98;100.00
75425;BME280;64007;50.632;13.700;2023-02-12T14:44:54;100027.00;;;7.83;100.00
75425;BME280;64007;50.632;13.700;2023-02-12T14:50:21;100024.59;;;7.77;100.00
75425;BME280;64007;50.632;13.700;2023-02-12T14:52:52;100027.38;;;7.74;100.00
75425;BME280;64007;50.632;13.700;2023-02-12T14:55:22;100020.47;;;7.70;100.00
75425;BME280;64007;50.632;13.700;2023-02-12T14:57:50;100017.13;;;7.65;100.00
75425;BME280;64007;50.632;13.700;2023-02-12T15:00:26;100025.19;;;7.62;100.00
75425;BME280;64007;50.632;13.700;2023-02-12T15:02:58;100022.16;;;7.47;100.00
75425;BME280;64007;50.632;13.700;2023-02-12T15:05:39;100021.34;;;7.45;100.00
75425;BME280;64007;50.632;13.700;2023-02-12T15:13:56;100014.88;;;7.04;100.00
75425;BME280;64007;50.632;13.700;2023-02-12T15:17:28;100014.28;;;6.96;100.00
75425;BME280;64007;50.632;13.700;2023-02-12T15:21:54;100021.88;;;7.05;100.00
75425;BME280;64007;50.632;13.700;2023-02-12T15:24:23;100021.34;;;6.96;100.00
75425;BME280;64007;50.632;13.700;2023-02-12T15:26:52;100021.66;;;6.86;100.00
75425;BME280;64007;50.632;13.700;2023-02-12T15:31:53;100032.81;;;6.68;100.00
75425;BME280;64007;50.632;13.700;2023-02-12T15:34:23;100031.28;;;6.89;100.00
75425;BME280;64007;50.632;13.700;2023-02-12T15:36:49;100019.75;;;6.64;100.00
75425;BME280;64007;50.632;13.700;2023-02-12T15:39:20;100032.53;;;6.51;100.00
75425;BME280;64007;50.632;13.700;2023-02-12T15:41:46;100031.91;;;6.43;100.00
75425;BME280;64007;50.632;13.700;2023-02-12T15:49:19;100028.16;;;6.22;100.00
75425;BME280;64007;50.632;13.700;2023-02-12T15:51:46;100039.38;;;6.28;100.00
75425;BME280;64007;50.632;13.700;2023-02-12T15:54:15;100031.91;;;6.15;100.00
75425;BME280;64007;50.632;13.700;2023-02-12T15:56:43;100036.59;;;6.05;100.00
75425;BME280;64007;50.632;13.700;2023-02-12T15:59:18;100035.03;;;5.98;100.00
75425;BME280;64007;50.632;13.700;2023-02-12T16:02:46;100037.91;;;5.90;100.00